Map

Track Data

SID SEASON NUMBER BASIN SUBBASIN NAME ISO_TIME NATURE LAT LON WMO_WIND WMO_PRES WMO_AGENCY TRACK_TYPE DIST2LAND LANDFALL IFLAG USA_AGENCY USA_ATCF_ID USA_LAT USA_LON USA_RECORD USA_STATUS USA_WIND USA_PRES USA_SSHS USA_R34_NE USA_R34_SE USA_R34_SW USA_R34_NW USA_R50_NE USA_R50_SE USA_R50_SW USA_R50_NW USA_R64_NE USA_R64_SE USA_R64_SW USA_R64_NW USA_POCI USA_ROCI USA_RMW USA_EYE TOKYO_LAT TOKYO_LON TOKYO_GRADE TOKYO_WIND TOKYO_PRES TOKYO_R50_DIR TOKYO_R50_LONG TOKYO_R50_SHORT TOKYO_R30_DIR TOKYO_R30_LONG TOKYO_R30_SHORT TOKYO_LAND CMA_LAT CMA_LON CMA_CAT CMA_WIND CMA_PRES HKO_LAT HKO_LON HKO_CAT HKO_WIND HKO_PRES NEWDELHI_LAT NEWDELHI_LON NEWDELHI_GRADE NEWDELHI_WIND NEWDELHI_PRES NEWDELHI_CI NEWDELHI_DP NEWDELHI_POCI REUNION_LAT REUNION_LON REUNION_TYPE REUNION_WIND REUNION_PRES REUNION_TNUM REUNION_CI REUNION_RMW REUNION_R34_NE REUNION_R34_SE REUNION_R34_SW REUNION_R34_NW REUNION_R50_NE REUNION_R50_SE REUNION_R50_SW REUNION_R50_NW REUNION_R64_NE REUNION_R64_SE REUNION_R64_SW REUNION_R64_NW BOM_LAT BOM_LON BOM_TYPE BOM_WIND BOM_PRES BOM_TNUM BOM_CI BOM_RMW BOM_R34_NE BOM_R34_SE BOM_R34_SW BOM_R34_NW BOM_R50_NE BOM_R50_SE BOM_R50_SW BOM_R50_NW BOM_R64_NE BOM_R64_SE BOM_R64_SW BOM_R64_NW BOM_ROCI BOM_POCI BOM_EYE BOM_POS_METHOD BOM_PRES_METHOD NADI_LAT NADI_LON NADI_CAT NADI_WIND NADI_PRES WELLINGTON_LAT WELLINGTON_LON WELLINGTON_WIND WELLINGTON_PRES DS824_LAT DS824_LON DS824_STAGE DS824_WIND DS824_PRES TD9636_LAT TD9636_LON TD9636_STAGE TD9636_WIND TD9636_PRES TD9635_LAT TD9635_LON TD9635_WIND TD9635_PRES TD9635_ROCI NEUMANN_LAT NEUMANN_LON NEUMANN_CLASS NEUMANN_WIND NEUMANN_PRES MLC_LAT MLC_LON MLC_CLASS MLC_WIND MLC_PRES USA_GUST BOM_GUST BOM_GUST_PER REUNION_GUST REUNION_GUST_PER USA_SEAHGT USA_SEARAD_NE USA_SEARAD_SE USA_SEARAD_SW USA_SEARAD_NW STORM_SPEED STORM_DIR
1931284N17088 1931 45 NI BB NOT_NAMED 1931-10-11 00:00:00 TS 17.4000 88.1000 main 341 326 _________O____ -1 17.4000 88.1000 TC 30 2 304
1931284N17088 1931 45 NI BB NOT_NAMED 1931-10-11 03:00:00 TS 17.4667 88.0017 main 326 311 _________PO___ -1 17.5000 87.9525 TC 30 17.4000 88.1000 1 3 305
1931284N17088 1931 45 NI BB NOT_NAMED 1931-10-11 06:00:00 TS 17.5625 87.8594 main 311 291 _________OP___ -1 17.6000 87.8000 TC 30 17.5063 87.9486 1 3 305
1931284N17088 1931 45 NI BB NOT_NAMED 1931-10-11 09:00:00 TS 17.6615 87.7090 main 291 286 _________PP___ -1 17.7000 87.6425 TC 30 17.6101 87.7976 1 3 305
1931284N17088 1931 45 NI BB NOT_NAMED 1931-10-11 12:00:00 TS 17.7544 87.5739 main 276 271 _________OP___ -1 17.8000 87.5000 TC 30 17.7088 87.6479 1 3 308
1931284N17088 1931 45 NI BB NOT_NAMED 1931-10-11 15:00:00 TS 17.8537 87.4500 main 257 253 _________PO___ -1 17.9075 87.4000 TC 31 17.8000 87.5000 1 3 309
1931284N17088 1931 45 NI BB NOT_NAMED 1931-10-11 18:00:00 TS 17.9411 87.3278 main 253 239 _________OP___ -1 18.0000 87.3000 TC 32 17.8822 87.3556 1 3 300
1931284N17088 1931 45 NI BB NOT_NAMED 1931-10-11 21:00:00 TS 18.0038 87.1812 main 239 224 _________PP___ -1 18.0500 87.1425 TC 33 17.9575 87.2200 1 3 295
1931284N17088 1931 45 NI BB NOT_NAMED 1931-10-12 00:00:00 TS 18.0645 87.0497 main 221 221 _________OP___ -1 18.1000 87.0000 TC 34 18.0291 87.0994 1 3 306
1931284N17088 1931 45 NI BB NOT_NAMED 1931-10-12 03:00:00 TS 18.1500 86.9675 main 210 207 _________PO___ -1 18.2000 86.9350 TC 36 18.1000 87.0000 2 2 332
1931284N17088 1931 45 NI BB NOT_NAMED 1931-10-12 06:00:00 TS 18.2433 86.9507 main 210 200 _________OP___ -1 18.3000 86.9000 TC 39 18.1867 87.0014 2 2 0
1931284N17088 1931 45 NI BB NOT_NAMED 1931-10-12 09:00:00 TS 18.3144 86.9649 main 200 186 _________PP___ -1 18.3573 86.9174 TC 42 18.2716 87.0123 2 1 331
1931284N17088 1931 45 NI BB NOT_NAMED 1931-10-12 12:00:00 TS 18.3729 86.8835 main 186 175 _________OP___ -1 18.4000 86.8000 TC 45 18.3457 86.9671 2 4 288
1931284N17088 1931 45 NI BB NOT_NAMED 1931-10-12 15:00:00 TS 18.4326 86.5838 main 175 143 _________PO___ -1 18.4652 86.3677 TC 41 18.4000 86.8000 3 8 276
1931284N17088 1931 45 NI BB NOT_NAMED 1931-10-12 18:00:00 TS 18.4574 86.0902 main 143 114 _________OP___ -1 18.5000 85.8000 TC 37 18.4149 86.3805 3 10 270
1931284N17088 1931 45 NI BB NOT_NAMED 1931-10-12 21:00:00 TS 18.4299 85.5497 main 104 69 _________PP___ -1 18.4501 85.2548 TC 33 18.4096 85.8447 3 10 267
1931284N17088 1931 45 NI BB NOT_NAMED 1931-10-13 00:00:00 TS 18.3996 85.0433 main 61 38 _________OP___ -1 18.4000 84.8000 TC 30 18.3993 85.2866 3 8 269
1931284N17088 1931 45 NI BB NOT_NAMED 1931-10-13 03:00:00 TS 18.4174 84.6775 main 38 15 _________PO___ -1 18.4348 84.5551 TC 30 18.4000 84.8000 1 6 277
1931284N17088 1931 45 NI BB NOT_NAMED 1931-10-13 06:00:00 TS 18.4654 84.4549 main 15 0 _________OP___ -1 18.5000 84.4000 TC 30 18.4308 84.5097 1 4 283
1931284N17088 1931 45 NI BB NOT_NAMED 1931-10-13 09:00:00 TS 18.5133 84.2513 main 0 0 _________PP___ -1 18.5500 84.2000 TC 30 18.4766 84.3025 1 4 286
1931284N17088 1931 45 NI BB NOT_NAMED 1931-10-13 12:00:00 TS 18.5671 84.0720 main 0 0 _________OP___ -1 18.6000 84.0000 TC 30 18.5341 84.1441 1 4 288
1931284N17088 1931 45 NI BB NOT_NAMED 1931-10-13 15:00:00 TS 18.6213 83.8962 main 0 0 _________PO___ -1 18.6425 83.7925 TC 30 18.6000 84.0000 1 3 290
1931284N17088 1931 45 NI BB NOT_NAMED 1931-10-13 18:00:00 TS 18.6834 83.7386 main 0 0 _________OP___ -1 18.7000 83.6000 TC 30 18.6710 83.8426 1 3 295
1931284N17088 1931 45 NI BB NOT_NAMED 1931-10-13 21:00:00 TS 18.7633 83.5781 main 0 0 _________PP___ -1 18.7900 83.4400 TC 30 18.7455 83.6701 1 3 299
1931284N17088 1931 45 NI BB NOT_NAMED 1931-10-14 00:00:00 TS 18.8482 83.4251 main 0 0 _________OP___ -1 18.9000 83.3000 TC 30 18.8222 83.4876 1 3 297
1931284N17088 1931 45 NI BB NOT_NAMED 1931-10-14 03:00:00 NR 18.9000 83.3000 main 0 __________O___ -1 TC 18.9000 83.3000 1 3 293

About IBTrACS Database

This database is a web-friendly format of International Best Track Archive for Climate Stewardship (IBTrACS), a global best track data archive curated by NOAA dating back to 1842.

Updated: 2021-10-21